sensor_id;sensor_type;location;lat;lon;timestamp;P1;durP1;ratioP1;P2;durP2;ratioP2
24483;SDS011;12643;51.620;7.548;2023-09-30T00:02:26;7.97;;;3.38;;
24483;SDS011;12643;51.620;7.548;2023-09-30T00:04:54;6.90;;;3.47;;
24483;SDS011;12643;51.620;7.548;2023-09-30T00:07:22;10.05;;;3.92;;
24483;SDS011;12643;51.620;7.548;2023-09-30T00:09:53;11.50;;;4.22;;
24483;SDS011;12643;51.620;7.548;2023-09-30T00:12:22;9.18;;;3.78;;
24483;SDS011;12643;51.620;7.548;2023-09-30T00:14:50;9.18;;;3.88;;
24483;SDS011;12643;51.620;7.548;2023-09-30T00:17:19;10.68;;;4.63;;
24483;SDS011;12643;51.620;7.548;2023-09-30T00:19:46;12.82;;;4.50;;
24483;SDS011;12643;51.620;7.548;2023-09-30T00:22:15;9.95;;;4.07;;
24483;SDS011;12643;51.620;7.548;2023-09-30T00:24:42;7.75;;;4.18;;
24483;SDS011;12643;51.620;7.548;2023-09-30T00:27:11;11.10;;;3.83;;
24483;SDS011;12643;51.620;7.548;2023-09-30T00:29:41;10.70;;;4.00;;
24483;SDS011;12643;51.620;7.548;2023-09-30T00:32:09;10.27;;;4.28;;
24483;SDS011;12643;51.620;7.548;2023-09-30T00:34:38;11.43;;;4.70;;
24483;SDS011;12643;51.620;7.548;2023-09-30T00:37:06;10.13;;;4.43;;
24483;SDS011;12643;51.620;7.548;2023-09-30T00:39:35;10.48;;;3.58;;
24483;SDS011;12643;51.620;7.548;2023-09-30T00:42:03;9.57;;;3.88;;
24483;SDS011;12643;51.620;7.548;2023-09-30T00:44:32;9.40;;;4.30;;
24483;SDS011;12643;51.620;7.548;2023-09-30T00:47:03;7.53;;;3.70;;
24483;SDS011;12643;51.620;7.548;2023-09-30T00:49:34;10.15;;;3.75;;
24483;SDS011;12643;51.620;7.548;2023-09-30T00:52:02;9.50;;;3.92;;
24483;SDS011;12643;51.620;7.548;2023-09-30T00:54:35;14.35;;;4.75;;
24483;SDS011;12643;51.620;7.548;2023-09-30T00:57:04;9.85;;;4.45;;
24483;SDS011;12643;51.620;7.548;2023-09-30T00:59:32;15.25;;;5.47;;
24483;SDS011;12643;51.620;7.548;2023-09-30T01:02:00;10.05;;;4.63;;
24483;SDS011;12643;51.620;7.548;2023-09-30T01:04:33;14.90;;;4.82;;
24483;SDS011;12643;51.620;7.548;2023-09-30T01:07:03;11.50;;;4.20;;
24483;SDS011;12643;51.620;7.548;2023-09-30T01:09:31;12.95;;;5.13;;
24483;SDS011;12643;51.620;7.548;2023-09-30T01:12:00;12.77;;;4.40;;
24483;SDS011;12643;51.620;7.548;2023-09-30T01:14:29;12.27;;;4.82;;
24483;SDS011;12643;51.620;7.548;2023-09-30T01:17:00;12.63;;;4.93;;
24483;SDS011;12643;51.620;7.548;2023-09-30T01:19:31;11.82;;;5.00;;
24483;SDS011;12643;51.620;7.548;2023-09-30T01:22:02;15.13;;;5.25;;
24483;SDS011;12643;51.620;7.548;2023-09-30T01:24:37;9.32;;;4.07;;
24483;SDS011;12643;51.620;7.548;2023-09-30T01:27:07;15.25;;;4.57;;
24483;SDS011;12643;51.620;7.548;2023-09-30T01:29:39;15.93;;;5.30;;
24483;SDS011;12643;51.620;7.548;2023-09-30T01:32:08;10.88;;;5.03;;
24483;SDS011;12643;51.620;7.548;2023-09-30T01:34:37;11.63;;;5.00;;
24483;SDS011;12643;51.620;7.548;2023-09-30T01:37:06;15.98;;;5.53;;
24483;SDS011;12643;51.620;7.548;2023-09-30T01:39:34;13.60;;;5.53;;
24483;SDS011;12643;51.620;7.548;2023-09-30T01:42:06;12.15;;;5.10;;
24483;SDS011;12643;51.620;7.548;2023-09-30T01:44:36;11.68;;;4.97;;
24483;SDS011;12643;51.620;7.548;2023-09-30T01:47:05;12.18;;;4.93;;
24483;SDS011;12643;51.620;7.548;2023-09-30T01:49:33;12.05;;;4.80;;
24483;SDS011;12643;51.620;7.548;2023-09-30T01:52:04;12.63;;;4.88;;
24483;SDS011;12643;51.620;7.548;2023-09-30T01:54:34;10.38;;;5.20;;
24483;SDS011;12643;51.620;7.548;2023-09-30T01:57:02;17.90;;;6.00;;
24483;SDS011;12643;51.620;7.548;2023-09-30T01:59:30;15.18;;;5.63;;
24483;SDS011;12643;51.620;7.548;2023-09-30T02:01:58;11.63;;;6.07;;
24483;SDS011;12643;51.620;7.548;2023-09-30T02:04:27;11.30;;;4.95;;
24483;SDS011;12643;51.620;7.548;2023-09-30T02:06:56;12.27;;;5.95;;
24483;SDS011;12643;51.620;7.548;2023-09-30T02:09:26;14.38;;;6.00;;
24483;SDS011;12643;51.620;7.548;2023-09-30T02:11:54;12.88;;;5.03;;
24483;SDS011;12643;51.620;7.548;2023-09-30T02:14:22;12.82;;;4.72;;
24483;SDS011;12643;51.620;7.548;2023-09-30T02:16:52;13.20;;;4.85;;
24483;SDS011;12643;51.620;7.548;2023-09-30T02:19:21;16.15;;;5.50;;
24483;SDS011;12643;51.620;7.548;2023-09-30T02:21:49;13.68;;;5.30;;
24483;SDS011;12643;51.620;7.548;2023-09-30T02:24:17;15.93;;;5.78;;
24483;SDS011;12643;51.620;7.548;2023-09-30T02:26:49;8.73;;;4.93;;
24483;SDS011;12643;51.620;7.548;2023-09-30T02:29:17;13.55;;;5.32;;
24483;SDS011;12643;51.620;7.548;2023-09-30T02:31:45;15.93;;;5.97;;
24483;SDS011;12643;51.620;7.548;2023-09-30T02:34:13;14.65;;;5.80;;
24483;SDS011;12643;51.620;7.548;2023-09-30T02:36:41;12.25;;;5.43;;
24483;SDS011;12643;51.620;7.548;2023-09-30T02:39:09;13.90;;;5.22;;
24483;SDS011;12643;51.620;7.548;2023-09-30T02:41:38;13.77;;;5.50;;
24483;SDS011;12643;51.620;7.548;2023-09-30T02:44:07;12.55;;;4.90;;
24483;SDS011;12643;51.620;7.548;2023-09-30T02:46:35;12.48;;;4.72;;
24483;SDS011;12643;51.620;7.548;2023-09-30T02:49:04;18.35;;;6.20;;
24483;SDS011;12643;51.620;7.548;2023-09-30T02:51:32;14.18;;;5.43;;
24483;SDS011;12643;51.620;7.548;2023-09-30T02:56:30;17.25;;;6.38;;
24483;SDS011;12643;51.620;7.548;2023-09-30T02:58:59;14.38;;;5.63;;
24483;SDS011;12643;51.620;7.548;2023-09-30T03:01:28;11.85;;;5.40;;
24483;SDS011;12643;51.620;7.548;2023-09-30T03:03:56;14.98;;;5.85;;
24483;SDS011;12643;51.620;7.548;2023-09-30T03:06:24;15.00;;;5.15;;
24483;SDS011;12643;51.620;7.548;2023-09-30T03:08:55;13.15;;;5.15;;
24483;SDS011;12643;51.620;7.548;2023-09-30T03:11:23;13.70;;;5.50;;
24483;SDS011;12643;51.620;7.548;2023-09-30T03:13:51;17.25;;;5.65;;
24483;SDS011;12643;51.620;7.548;2023-09-30T03:16:21;12.10;;;5.75;;
24483;SDS011;12643;51.620;7.548;2023-09-30T03:18:55;11.75;;;5.25;;
24483;SDS011;12643;51.620;7.548;2023-09-30T03:21:23;13.50;;;5.90;;
24483;SDS011;12643;51.620;7.548;2023-09-30T03:23:51;15.90;;;6.25;;
24483;SDS011;12643;51.620;7.548;2023-09-30T03:26:21;19.10;;;6.57;;
24483;SDS011;12643;51.620;7.548;2023-09-30T03:28:49;14.90;;;5.95;;
24483;SDS011;12643;51.620;7.548;2023-09-30T03:31:19;13.82;;;5.40;;
24483;SDS011;12643;51.620;7.548;2023-09-30T03:33:48;13.18;;;5.53;;
24483;SDS011;12643;51.620;7.548;2023-09-30T03:36:19;15.40;;;6.40;;
24483;SDS011;12643;51.620;7.548;2023-09-30T03:38:47;22.70;;;6.20;;
24483;SDS011;12643;51.620;7.548;2023-09-30T03:41:15;18.60;;;6.47;;
24483;SDS011;12643;51.620;7.548;2023-09-30T03:43:45;10.95;;;5.53;;
24483;SDS011;12643;51.620;7.548;2023-09-30T03:46:15;16.55;;;6.20;;
24483;SDS011;12643;51.620;7.548;2023-09-30T03:48:43;14.02;;;6.22;;
24483;SDS011;12643;51.620;7.548;2023-09-30T03:51:14;13.27;;;5.80;;
24483;SDS011;12643;51.620;7.548;2023-09-30T03:53:44;12.20;;;5.53;;
24483;SDS011;12643;51.620;7.548;2023-09-30T03:56:12;13.32;;;6.57;;
24483;SDS011;12643;51.620;7.548;2023-09-30T03:58:41;12.75;;;5.65;;
24483;SDS011;12643;51.620;7.548;2023-09-30T04:01:10;14.70;;;6.00;;
24483;SDS011;12643;51.620;7.548;2023-09-30T04:03:39;13.55;;;5.60;;
24483;SDS011;12643;51.620;7.548;2023-09-30T04:06:09;13.38;;;5.70;;
24483;SDS011;12643;51.620;7.548;2023-09-30T04:08:39;13.88;;;5.93;;
24483;SDS011;12643;51.620;7.548;2023-09-30T04:11:11;19.58;;;6.90;;
24483;SDS011;12643;51.620;7.548;2023-09-30T04:13:44;16.80;;;6.25;;
24483;SDS011;12643;51.620;7.548;2023-09-30T04:16:12;17.73;;;6.45;;
24483;SDS011;12643;51.620;7.548;2023-09-30T04:18:41;17.15;;;6.50;;
24483;SDS011;12643;51.620;7.548;2023-09-30T04:23:43;17.70;;;6.90;;
24483;SDS011;12643;51.620;7.548;2023-09-30T04:26:13;17.63;;;6.15;;
24483;SDS011;12643;51.620;7.548;2023-09-30T04:28:45;14.95;;;6.45;;
24483;SDS011;12643;51.620;7.548;2023-09-30T04:31:13;13.73;;;5.72;;
24483;SDS011;12643;51.620;7.548;2023-09-30T04:33:41;18.25;;;6.15;;
24483;SDS011;12643;51.620;7.548;2023-09-30T04:36:10;13.05;;;5.90;;
24483;SDS011;12643;51.620;7.548;2023-09-30T04:38:39;12.20;;;5.45;;
24483;SDS011;12643;51.620;7.548;2023-09-30T04:41:08;16.88;;;5.70;;
24483;SDS011;12643;51.620;7.548;2023-09-30T04:43:41;14.07;;;6.05;;
24483;SDS011;12643;51.620;7.548;2023-09-30T04:46:09;15.70;;;6.25;;
24483;SDS011;12643;51.620;7.548;2023-09-30T04:48:38;11.80;;;5.65;;
24483;SDS011;12643;51.620;7.548;2023-09-30T04:51:06;13.88;;;5.97;;
24483;SDS011;12643;51.620;7.548;2023-09-30T04:53:37;15.48;;;6.40;;
24483;SDS011;12643;51.620;7.548;2023-09-30T04:56:05;12.43;;;5.85;;
24483;SDS011;12643;51.620;7.548;2023-09-30T04:58:33;15.82;;;6.45;;
24483;SDS011;12643;51.620;7.548;2023-09-30T05:01:03;16.45;;;5.55;;
24483;SDS011;12643;51.620;7.548;2023-09-30T05:03:34;12.75;;;5.38;;
24483;SDS011;12643;51.620;7.548;2023-09-30T05:06:02;14.60;;;5.93;;
24483;SDS011;12643;51.620;7.548;2023-09-30T05:08:33;17.42;;;6.32;;
24483;SDS011;12643;51.620;7.548;2023-09-30T05:11:02;15.35;;;5.88;;
24483;SDS011;12643;51.620;7.548;2023-09-30T05:13:31;15.88;;;6.03;;
24483;SDS011;12643;51.620;7.548;2023-09-30T05:16:00;12.35;;;5.28;;
24483;SDS011;12643;51.620;7.548;2023-09-30T05:18:30;14.85;;;5.47;;
24483;SDS011;12643;51.620;7.548;2023-09-30T05:20:59;12.50;;;5.40;;
24483;SDS011;12643;51.620;7.548;2023-09-30T05:23:27;19.63;;;6.28;;
24483;SDS011;12643;51.620;7.548;2023-09-30T05:25:58;11.23;;;5.43;;
24483;SDS011;12643;51.620;7.548;2023-09-30T05:28:26;11.00;;;5.65;;
24483;SDS011;12643;51.620;7.548;2023-09-30T05:31:00;16.30;;;5.95;;
24483;SDS011;12643;51.620;7.548;2023-09-30T05:33:34;14.90;;;5.32;;
24483;SDS011;12643;51.620;7.548;2023-09-30T05:36:06;15.55;;;5.45;;
24483;SDS011;12643;51.620;7.548;2023-09-30T05:38:34;15.35;;;6.53;;
24483;SDS011;12643;51.620;7.548;2023-09-30T05:41:04;14.03;;;5.67;;
24483;SDS011;12643;51.620;7.548;2023-09-30T05:43:34;15.50;;;5.35;;
24483;SDS011;12643;51.620;7.548;2023-09-30T05:46:02;14.25;;;5.20;;
24483;SDS011;12643;51.620;7.548;2023-09-30T05:48:33;15.13;;;6.13;;
24483;SDS011;12643;51.620;7.548;2023-09-30T05:51:01;15.55;;;5.72;;
24483;SDS011;12643;51.620;7.548;2023-09-30T05:53:31;16.92;;;6.10;;
24483;SDS011;12643;51.620;7.548;2023-09-30T05:56:01;13.10;;;5.47;;
24483;SDS011;12643;51.620;7.548;2023-09-30T05:58:29;17.50;;;5.47;;
24483;SDS011;12643;51.620;7.548;2023-09-30T06:00:57;12.93;;;5.60;;
24483;SDS011;12643;51.620;7.548;2023-09-30T06:03:26;22.92;;;6.75;;
24483;SDS011;12643;51.620;7.548;2023-09-30T06:05:56;12.88;;;4.75;;
24483;SDS011;12643;51.620;7.548;2023-09-30T06:08:25;14.20;;;5.03;;
24483;SDS011;12643;51.620;7.548;2023-09-30T06:10:53;12.30;;;5.18;;
24483;SDS011;12643;51.620;7.548;2023-09-30T06:13:21;11.77;;;4.95;;
24483;SDS011;12643;51.620;7.548;2023-09-30T06:15:49;12.98;;;5.43;;
24483;SDS011;12643;51.620;7.548;2023-09-30T06:18:17;15.60;;;4.95;;
24483;SDS011;12643;51.620;7.548;2023-09-30T06:20:45;13.02;;;5.30;;
24483;SDS011;12643;51.620;7.548;2023-09-30T06:23:15;11.50;;;5.03;;
24483;SDS011;12643;51.620;7.548;2023-09-30T06:25:43;13.38;;;5.47;;
24483;SDS011;12643;51.620;7.548;2023-09-30T06:28:11;13.15;;;5.90;;
24483;SDS011;12643;51.620;7.548;2023-09-30T06:30:40;11.77;;;5.50;;
24483;SDS011;12643;51.620;7.548;2023-09-30T06:33:11;15.20;;;5.72;;
24483;SDS011;12643;51.620;7.548;2023-09-30T06:35:45;17.52;;;6.03;;
24483;SDS011;12643;51.620;7.548;2023-09-30T06:40:47;16.97;;;5.37;;
24483;SDS011;12643;51.620;7.548;2023-09-30T06:43:15;13.80;;;5.75;;
24483;SDS011;12643;51.620;7.548;2023-09-30T06:45:46;13.38;;;5.35;;
24483;SDS011;12643;51.620;7.548;2023-09-30T06:48:17;15.48;;;5.85;;
24483;SDS011;12643;51.620;7.548;2023-09-30T06:50:45;22.25;;;6.32;;
24483;SDS011;12643;51.620;7.548;2023-09-30T06:53:13;16.08;;;6.05;;
24483;SDS011;12643;51.620;7.548;2023-09-30T06:55:43;14.45;;;5.70;;
24483;SDS011;12643;51.620;7.548;2023-09-30T06:58:13;21.08;;;6.70;;
24483;SDS011;12643;51.620;7.548;2023-09-30T07:00:46;22.38;;;7.60;;
24483;SDS011;12643;51.620;7.548;2023-09-30T07:03:15;15.05;;;6.25;;
24483;SDS011;12643;51.620;7.548;2023-09-30T07:05:45;15.85;;;5.80;;
24483;SDS011;12643;51.620;7.548;2023-09-30T07:08:15;16.63;;;6.55;;
24483;SDS011;12643;51.620;7.548;2023-09-30T07:10:45;18.98;;;6.93;;
24483;SDS011;12643;51.620;7.548;2023-09-30T07:13:15;21.17;;;6.10;;
24483;SDS011;12643;51.620;7.548;2023-09-30T07:15:43;17.30;;;6.65;;
24483;SDS011;12643;51.620;7.548;2023-09-30T07:18:12;20.33;;;7.00;;
24483;SDS011;12643;51.620;7.548;2023-09-30T07:20:41;19.23;;;6.82;;
24483;SDS011;12643;51.620;7.548;2023-09-30T07:23:10;24.08;;;7.45;;
24483;SDS011;12643;51.620;7.548;2023-09-30T07:25:38;23.75;;;7.53;;
24483;SDS011;12643;51.620;7.548;2023-09-30T07:28:08;28.65;;;9.52;;
24483;SDS011;12643;51.620;7.548;2023-09-30T07:30:37;23.23;;;6.78;;
24483;SDS011;12643;51.620;7.548;2023-09-30T07:33:09;27.50;;;7.32;;
24483;SDS011;12643;51.620;7.548;2023-09-30T07:35:37;26.25;;;7.15;;
24483;SDS011;12643;51.620;7.548;2023-09-30T07:38:07;21.88;;;7.43;;
24483;SDS011;12643;51.620;7.548;2023-09-30T07:40:34;22.25;;;7.35;;
24483;SDS011;12643;51.620;7.548;2023-09-30T07:43:03;22.35;;;7.10;;
24483;SDS011;12643;51.620;7.548;2023-09-30T07:45:40;27.20;;;8.05;;
24483;SDS011;12643;51.620;7.548;2023-09-30T07:48:09;25.25;;;6.40;;
24483;SDS011;12643;51.620;7.548;2023-09-30T07:50:37;25.00;;;6.55;;
24483;SDS011;12643;51.620;7.548;2023-09-30T07:53:06;30.60;;;7.90;;
24483;SDS011;12643;51.620;7.548;2023-09-30T07:55:37;19.02;;;6.43;;
24483;SDS011;12643;51.620;7.548;2023-09-30T07:58:06;18.90;;;6.55;;
24483;SDS011;12643;51.620;7.548;2023-09-30T08:00:38;21.63;;;6.95;;
24483;SDS011;12643;51.620;7.548;2023-09-30T08:03:06;25.80;;;7.75;;
24483;SDS011;12643;51.620;7.548;2023-09-30T08:05:35;18.17;;;6.47;;
24483;SDS011;12643;51.620;7.548;2023-09-30T08:08:03;21.02;;;6.60;;
24483;SDS011;12643;51.620;7.548;2023-09-30T08:10:32;24.80;;;6.95;;
24483;SDS011;12643;51.620;7.548;2023-09-30T08:13:02;17.35;;;6.40;;
24483;SDS011;12643;51.620;7.548;2023-09-30T08:15:31;16.08;;;7.13;;
24483;SDS011;12643;51.620;7.548;2023-09-30T08:18:08;24.10;;;7.22;;
24483;SDS011;12643;51.620;7.548;2023-09-30T08:20:37;29.67;;;7.60;;
24483;SDS011;12643;51.620;7.548;2023-09-30T08:23:06;18.33;;;5.75;;
24483;SDS011;12643;51.620;7.548;2023-09-30T08:25:34;17.48;;;5.93;;
24483;SDS011;12643;51.620;7.548;2023-09-30T08:28:03;21.65;;;6.38;;
24483;SDS011;12643;51.620;7.548;2023-09-30T08:30:32;20.95;;;6.22;;
24483;SDS011;12643;51.620;7.548;2023-09-30T08:33:01;24.02;;;6.88;;
24483;SDS011;12643;51.620;7.548;2023-09-30T08:35:36;23.00;;;6.18;;
24483;SDS011;12643;51.620;7.548;2023-09-30T08:38:04;21.55;;;6.72;;
24483;SDS011;12643;51.620;7.548;2023-09-30T08:40:32;15.48;;;6.18;;
24483;SDS011;12643;51.620;7.548;2023-09-30T08:43:02;20.98;;;6.53;;
24483;SDS011;12643;51.620;7.548;2023-09-30T08:45:32;16.42;;;6.20;;
24483;SDS011;12643;51.620;7.548;2023-09-30T08:48:07;15.68;;;5.60;;
24483;SDS011;12643;51.620;7.548;2023-09-30T08:50:39;19.08;;;6.18;;
24483;SDS011;12643;51.620;7.548;2023-09-30T08:53:09;18.50;;;5.90;;
24483;SDS011;12643;51.620;7.548;2023-09-30T08:55:38;18.88;;;6.45;;
24483;SDS011;12643;51.620;7.548;2023-09-30T08:58:08;18.83;;;6.13;;
24483;SDS011;12643;51.620;7.548;2023-09-30T09:00:38;18.65;;;6.03;;
24483;SDS011;12643;51.620;7.548;2023-09-30T09:03:06;18.67;;;6.28;;
24483;SDS011;12643;51.620;7.548;2023-09-30T09:05:38;18.92;;;5.55;;
24483;SDS011;12643;51.620;7.548;2023-09-30T09:08:09;18.38;;;5.30;;
24483;SDS011;12643;51.620;7.548;2023-09-30T09:10:43;18.83;;;5.22;;
24483;SDS011;12643;51.620;7.548;2023-09-30T09:13:23;17.70;;;5.50;;
24483;SDS011;12643;51.620;7.548;2023-09-30T09:16:05;19.50;;;5.25;;
24483;SDS011;12643;51.620;7.548;2023-09-30T09:18:34;20.17;;;5.57;;
24483;SDS011;12643;51.620;7.548;2023-09-30T09:21:11;11.80;;;4.72;;
24483;SDS011;12643;51.620;7.548;2023-09-30T09:23:40;17.25;;;6.00;;
24483;SDS011;12643;51.620;7.548;2023-09-30T09:26:10;12.00;;;4.97;;
24483;SDS011;12643;51.620;7.548;2023-09-30T09:28:39;11.77;;;4.45;;
24483;SDS011;12643;51.620;7.548;2023-09-30T09:31:27;14.32;;;4.90;;
24483;SDS011;12643;51.620;7.548;2023-09-30T09:33:56;12.50;;;4.65;;
24483;SDS011;12643;51.620;7.548;2023-09-30T09:36:39;17.52;;;5.32;;
24483;SDS011;12643;51.620;7.548;2023-09-30T09:39:08;17.45;;;5.15;;
24483;SDS011;12643;51.620;7.548;2023-09-30T09:41:48;12.43;;;5.28;;
24483;SDS011;12643;51.620;7.548;2023-09-30T09:44:18;17.40;;;4.95;;
24483;SDS011;12643;51.620;7.548;2023-09-30T09:46:49;15.10;;;4.85;;
24483;SDS011;12643;51.620;7.548;2023-09-30T09:49:17;13.30;;;4.25;;
24483;SDS011;12643;51.620;7.548;2023-09-30T09:51:48;9.15;;;4.03;;
24483;SDS011;12643;51.620;7.548;2023-09-30T09:54:16;9.52;;;4.25;;
24483;SDS011;12643;51.620;7.548;2023-09-30T09:56:44;9.70;;;4.07;;
24483;SDS011;12643;51.620;7.548;2023-09-30T09:59:13;11.35;;;4.55;;
24483;SDS011;12643;51.620;7.548;2023-09-30T10:01:44;13.75;;;4.88;;
24483;SDS011;12643;51.620;7.548;2023-09-30T10:04:14;16.73;;;4.07;;
24483;SDS011;12643;51.620;7.548;2023-09-30T10:06:43;10.00;;;3.70;;
24483;SDS011;12643;51.620;7.548;2023-09-30T10:09:17;7.40;;;3.38;;
24483;SDS011;12643;51.620;7.548;2023-09-30T10:11:47;10.18;;;3.33;;
24483;SDS011;12643;51.620;7.548;2023-09-30T10:14:29;9.35;;;3.50;;
24483;SDS011;12643;51.620;7.548;2023-09-30T10:16:58;10.20;;;3.90;;
24483;SDS011;12643;51.620;7.548;2023-09-30T10:19:27;8.10;;;3.75;;
24483;SDS011;12643;51.620;7.548;2023-09-30T10:24:55;8.68;;;3.00;;
24483;SDS011;12643;51.620;7.548;2023-09-30T10:27:28;10.07;;;3.22;;
24483;SDS011;12643;51.620;7.548;2023-09-30T10:30:10;8.77;;;3.20;;
24483;SDS011;12643;51.620;7.548;2023-09-30T10:35:50;9.65;;;3.45;;
24483;SDS011;12643;51.620;7.548;2023-09-30T10:38:37;8.65;;;3.22;;
24483;SDS011;12643;51.620;7.548;2023-09-30T10:41:48;8.18;;;3.15;;
24483;SDS011;12643;51.620;7.548;2023-09-30T10:50:03;8.60;;;2.92;;
24483;SDS011;12643;51.620;7.548;2023-09-30T10:52:51;7.63;;;2.85;;
24483;SDS011;12643;51.620;7.548;2023-09-30T10:55:21;4.25;;;2.40;;
24483;SDS011;12643;51.620;7.548;2023-09-30T10:57:50;6.15;;;2.50;;
24483;SDS011;12643;51.620;7.548;2023-09-30T11:00:19;6.47;;;2.55;;
24483;SDS011;12643;51.620;7.548;2023-09-30T11:02:48;8.18;;;3.10;;
24483;SDS011;12643;51.620;7.548;2023-09-30T11:05:17;8.95;;;3.17;;
24483;SDS011;12643;51.620;7.548;2023-09-30T11:07:47;8.38;;;3.03;;
24483;SDS011;12643;51.620;7.548;2023-09-30T11:12:56;8.80;;;3.17;;
24483;SDS011;12643;51.620;7.548;2023-09-30T11:15:25;6.72;;;2.55;;
24483;SDS011;12643;51.620;7.548;2023-09-30T11:17:53;6.40;;;2.88;;
24483;SDS011;12643;51.620;7.548;2023-09-30T11:20:39;9.98;;;3.53;;
24483;SDS011;12643;51.620;7.548;2023-09-30T11:23:07;14.18;;;3.70;;
24483;SDS011;12643;51.620;7.548;2023-09-30T11:25:35;8.75;;;3.63;;
24483;SDS011;12643;51.620;7.548;2023-09-30T11:31:03;9.02;;;3.78;;
24483;SDS011;12643;51.620;7.548;2023-09-30T11:33:46;10.68;;;3.55;;
24483;SDS011;12643;51.620;7.548;2023-09-30T11:36:18;15.00;;;3.80;;
24483;SDS011;12643;51.620;7.548;2023-09-30T11:38:47;8.55;;;3.30;;
24483;SDS011;12643;51.620;7.548;2023-09-30T11:41:19;7.10;;;3.40;;
24483;SDS011;12643;51.620;7.548;2023-09-30T11:44:02;10.52;;;3.45;;
24483;SDS011;12643;51.620;7.548;2023-09-30T11:46:49;9.38;;;3.80;;
24483;SDS011;12643;51.620;7.548;2023-09-30T11:49:26;6.38;;;2.90;;
24483;SDS011;12643;51.620;7.548;2023-09-30T11:51:55;6.43;;;3.25;;
24483;SDS011;12643;51.620;7.548;2023-09-30T11:54:29;8.18;;;3.25;;
24483;SDS011;12643;51.620;7.548;2023-09-30T11:56:58;6.53;;;3.63;;
24483;SDS011;12643;51.620;7.548;2023-09-30T11:59:28;8.13;;;3.35;;
24483;SDS011;12643;51.620;7.548;2023-09-30T12:02:02;10.95;;;5.10;;
24483;SDS011;12643;51.620;7.548;2023-09-30T12:04:31;7.93;;;3.55;;
24483;SDS011;12643;51.620;7.548;2023-09-30T12:07:00;8.73;;;3.65;;
24483;SDS011;12643;51.620;7.548;2023-09-30T12:09:28;10.38;;;3.60;;
24483;SDS011;12643;51.620;7.548;2023-09-30T12:11:57;9.02;;;4.03;;
24483;SDS011;12643;51.620;7.548;2023-09-30T12:14:29;6.60;;;3.20;;
24483;SDS011;12643;51.620;7.548;2023-09-30T12:16:57;8.43;;;3.80;;
24483;SDS011;12643;51.620;7.548;2023-09-30T12:19:26;10.95;;;4.05;;
24483;SDS011;12643;51.620;7.548;2023-09-30T12:21:55;8.57;;;3.33;;
24483;SDS011;12643;51.620;7.548;2023-09-30T12:24:24;12.15;;;3.53;;
24483;SDS011;12643;51.620;7.548;2023-09-30T12:26:52;12.30;;;3.90;;
24483;SDS011;12643;51.620;7.548;2023-09-30T12:29:20;13.85;;;3.67;;
24483;SDS011;12643;51.620;7.548;2023-09-30T12:31:51;8.63;;;3.20;;
24483;SDS011;12643;51.620;7.548;2023-09-30T12:34:19;9.43;;;3.50;;
24483;SDS011;12643;51.620;7.548;2023-09-30T12:36:48;11.55;;;3.60;;
24483;SDS011;12643;51.620;7.548;2023-09-30T12:39:17;10.35;;;3.63;;
24483;SDS011;12643;51.620;7.548;2023-09-30T12:41:50;7.88;;;3.75;;
24483;SDS011;12643;51.620;7.548;2023-09-30T12:44:18;10.35;;;3.90;;
24483;SDS011;12643;51.620;7.548;2023-09-30T12:46:48;10.55;;;4.03;;
24483;SDS011;12643;51.620;7.548;2023-09-30T12:49:18;8.93;;;3.22;;
24483;SDS011;12643;51.620;7.548;2023-09-30T12:51:46;7.40;;;3.38;;
24483;SDS011;12643;51.620;7.548;2023-09-30T12:54:14;6.00;;;3.30;;
24483;SDS011;12643;51.620;7.548;2023-09-30T12:56:43;9.05;;;3.22;;
24483;SDS011;12643;51.620;7.548;2023-09-30T12:59:12;7.57;;;3.47;;
24483;SDS011;12643;51.620;7.548;2023-09-30T13:01:41;6.00;;;3.20;;
24483;SDS011;12643;51.620;7.548;2023-09-30T13:04:10;8.75;;;3.55;;
24483;SDS011;12643;51.620;7.548;2023-09-30T13:06:38;6.05;;;3.35;;
24483;SDS011;12643;51.620;7.548;2023-09-30T13:09:06;6.97;;;3.03;;
24483;SDS011;12643;51.620;7.548;2023-09-30T13:11:35;8.68;;;3.03;;
24483;SDS011;12643;51.620;7.548;2023-09-30T13:14:03;8.45;;;2.88;;
24483;SDS011;12643;51.620;7.548;2023-09-30T13:16:31;8.60;;;2.95;;
24483;SDS011;12643;51.620;7.548;2023-09-30T13:18:59;7.40;;;2.95;;
24483;SDS011;12643;51.620;7.548;2023-09-30T13:21:29;7.65;;;2.90;;
24483;SDS011;12643;51.620;7.548;2023-09-30T13:23:57;5.35;;;2.63;;
24483;SDS011;12643;51.620;7.548;2023-09-30T13:26:25;10.55;;;3.60;;
24483;SDS011;12643;51.620;7.548;2023-09-30T13:28:53;10.13;;;3.47;;
24483;SDS011;12643;51.620;7.548;2023-09-30T13:31:22;5.93;;;2.90;;
24483;SDS011;12643;51.620;7.548;2023-09-30T13:33:50;4.85;;;2.63;;
24483;SDS011;12643;51.620;7.548;2023-09-30T13:36:18;8.70;;;3.03;;
24483;SDS011;12643;51.620;7.548;2023-09-30T13:38:47;9.48;;;3.13;;
24483;SDS011;12643;51.620;7.548;2023-09-30T13:41:15;10.02;;;3.22;;
24483;SDS011;12643;51.620;7.548;2023-09-30T13:43:43;6.95;;;2.78;;
24483;SDS011;12643;51.620;7.548;2023-09-30T13:46:11;7.22;;;3.35;;
24483;SDS011;12643;51.620;7.548;2023-09-30T13:48:39;6.10;;;3.22;;
24483;SDS011;12643;51.620;7.548;2023-09-30T13:51:09;7.55;;;3.72;;
24483;SDS011;12643;51.620;7.548;2023-09-30T13:53:37;8.10;;;3.35;;
24483;SDS011;12643;51.620;7.548;2023-09-30T13:56:06;14.05;;;3.88;;
24483;SDS011;12643;51.620;7.548;2023-09-30T13:58:35;7.38;;;3.75;;
24483;SDS011;12643;51.620;7.548;2023-09-30T14:01:05;8.75;;;4.03;;
24483;SDS011;12643;51.620;7.548;2023-09-30T14:03:33;7.00;;;2.63;;
24483;SDS011;12643;51.620;7.548;2023-09-30T14:06:01;16.67;;;3.75;;
24483;SDS011;12643;51.620;7.548;2023-09-30T14:08:32;8.50;;;3.50;;
24483;SDS011;12643;51.620;7.548;2023-09-30T14:11:02;8.23;;;3.70;;
24483;SDS011;12643;51.620;7.548;2023-09-30T14:13:34;11.93;;;4.05;;
24483;SDS011;12643;51.620;7.548;2023-09-30T14:16:02;8.23;;;3.70;;
24483;SDS011;12643;51.620;7.548;2023-09-30T14:18:30;8.48;;;3.65;;
24483;SDS011;12643;51.620;7.548;2023-09-30T14:20:58;9.25;;;3.95;;
24483;SDS011;12643;51.620;7.548;2023-09-30T14:23:26;8.85;;;3.50;;
24483;SDS011;12643;51.620;7.548;2023-09-30T14:25:54;7.63;;;3.55;;
24483;SDS011;12643;51.620;7.548;2023-09-30T14:28:22;8.68;;;3.92;;
24483;SDS011;12643;51.620;7.548;2023-09-30T14:30:53;6.28;;;3.00;;
24483;SDS011;12643;51.620;7.548;2023-09-30T14:33:22;8.40;;;3.35;;
24483;SDS011;12643;51.620;7.548;2023-09-30T14:35:51;5.90;;;3.10;;
24483;SDS011;12643;51.620;7.548;2023-09-30T14:38:21;5.53;;;3.22;;
24483;SDS011;12643;51.620;7.548;2023-09-30T14:40:49;6.57;;;3.33;;
24483;SDS011;12643;51.620;7.548;2023-09-30T14:43:16;10.93;;;3.67;;
24483;SDS011;12643;51.620;7.548;2023-09-30T14:45:45;6.97;;;3.15;;
24483;SDS011;12643;51.620;7.548;2023-09-30T14:48:14;5.78;;;3.28;;
24483;SDS011;12643;51.620;7.548;2023-09-30T14:50:49;5.55;;;2.90;;
24483;SDS011;12643;51.620;7.548;2023-09-30T14:53:18;6.82;;;2.85;;
24483;SDS011;12643;51.620;7.548;2023-09-30T14:55:46;4.25;;;2.90;;
24483;SDS011;12643;51.620;7.548;2023-09-30T14:58:14;7.45;;;3.13;;
24483;SDS011;12643;51.620;7.548;2023-09-30T15:00:42;8.98;;;3.45;;
24483;SDS011;12643;51.620;7.548;2023-09-30T15:05:42;6.07;;;3.13;;
24483;SDS011;12643;51.620;7.548;2023-09-30T15:08:13;5.47;;;2.90;;
24483;SDS011;12643;51.620;7.548;2023-09-30T15:10:42;5.78;;;3.33;;
24483;SDS011;12643;51.620;7.548;2023-09-30T15:13:12;6.95;;;2.97;;
24483;SDS011;12643;51.620;7.548;2023-09-30T15:15:43;7.88;;;3.03;;
24483;SDS011;12643;51.620;7.548;2023-09-30T15:18:11;7.00;;;2.97;;
24483;SDS011;12643;51.620;7.548;2023-09-30T15:20:41;5.45;;;2.72;;
24483;SDS011;12643;51.620;7.548;2023-09-30T15:23:10;5.30;;;2.77;;